sensor_id;sensor_type;location;lat;lon;timestamp;P1;durP1;ratioP1;P2;durP2;ratioP2
50010;SDS011;35899;50.352;19.390;2022-12-18T00:02:12;41.73;;;14.33;;
50010;SDS011;35899;50.352;19.390;2022-12-18T00:04:38;46.80;;;17.47;;
50010;SDS011;35899;50.352;19.390;2022-12-18T00:07:04;50.30;;;17.40;;
50010;SDS011;35899;50.352;19.390;2022-12-18T00:09:31;47.07;;;16.53;;
50010;SDS011;35899;50.352;19.390;2022-12-18T00:11:57;46.93;;;17.30;;
50010;SDS011;35899;50.352;19.390;2022-12-18T00:14:23;48.67;;;17.07;;
50010;SDS011;35899;50.352;19.390;2022-12-18T00:16:50;47.93;;;17.48;;
50010;SDS011;35899;50.352;19.390;2022-12-18T00:19:17;49.47;;;17.57;;
50010;SDS011;35899;50.352;19.390;2022-12-18T00:21:43;50.78;;;18.67;;
50010;SDS011;35899;50.352;19.390;2022-12-18T00:24:10;67.47;;;23.40;;
50010;SDS011;35899;50.352;19.390;2022-12-18T00:26:37;53.00;;;18.67;;
50010;SDS011;35899;50.352;19.390;2022-12-18T00:29:06;44.57;;;16.97;;
50010;SDS011;35899;50.352;19.390;2022-12-18T00:31:39;46.23;;;16.23;;
50010;SDS011;35899;50.352;19.390;2022-12-18T00:34:06;49.93;;;16.80;;
50010;SDS011;35899;50.352;19.390;2022-12-18T00:36:39;51.45;;;17.67;;
50010;SDS011;35899;50.352;19.390;2022-12-18T00:39:07;48.80;;;16.50;;
50010;SDS011;35899;50.352;19.390;2022-12-18T00:41:35;45.57;;;17.37;;
50010;SDS011;35899;50.352;19.390;2022-12-18T00:44:03;54.08;;;18.65;;
50010;SDS011;35899;50.352;19.390;2022-12-18T00:46:31;44.38;;;17.15;;
50010;SDS011;35899;50.352;19.390;2022-12-18T00:48:59;50.17;;;17.50;;
50010;SDS011;35899;50.352;19.390;2022-12-18T00:51:25;41.13;;;15.43;;
50010;SDS011;35899;50.352;19.390;2022-12-18T00:53:52;42.38;;;15.58;;
50010;SDS011;35899;50.352;19.390;2022-12-18T00:56:22;48.43;;;17.13;;
50010;SDS011;35899;50.352;19.390;2022-12-18T00:58:49;45.83;;;16.37;;
50010;SDS011;35899;50.352;19.390;2022-12-18T01:01:16;63.47;;;22.30;;
50010;SDS011;35899;50.352;19.390;2022-12-18T01:03:43;54.40;;;18.73;;
50010;SDS011;35899;50.352;19.390;2022-12-18T01:06:10;58.50;;;20.03;;
50010;SDS011;35899;50.352;19.390;2022-12-18T01:08:38;48.67;;;17.53;;
50010;SDS011;35899;50.352;19.390;2022-12-18T01:11:08;53.78;;;17.85;;
50010;SDS011;35899;50.352;19.390;2022-12-18T01:13:37;42.10;;;16.15;;
50010;SDS011;35899;50.352;19.390;2022-12-18T01:16:04;47.07;;;16.93;;
50010;SDS011;35899;50.352;19.390;2022-12-18T01:18:33;49.45;;;16.52;;
50010;SDS011;35899;50.352;19.390;2022-12-18T01:21:00;62.93;;;21.33;;
50010;SDS011;35899;50.352;19.390;2022-12-18T01:23:26;46.00;;;15.55;;
50010;SDS011;35899;50.352;19.390;2022-12-18T01:25:53;48.85;;;17.20;;
50010;SDS011;35899;50.352;19.390;2022-12-18T01:28:19;50.67;;;17.67;;
50010;SDS011;35899;50.352;19.390;2022-12-18T01:30:46;42.93;;;14.45;;
50010;SDS011;35899;50.352;19.390;2022-12-18T01:33:12;47.53;;;18.30;;
50010;SDS011;35899;50.352;19.390;2022-12-18T01:35:41;51.13;;;18.30;;
50010;SDS011;35899;50.352;19.390;2022-12-18T01:38:09;46.53;;;16.30;;
50010;SDS011;35899;50.352;19.390;2022-12-18T01:40:35;52.27;;;18.07;;
50010;SDS011;35899;50.352;19.390;2022-12-18T01:43:02;47.35;;;17.70;;
50010;SDS011;35899;50.352;19.390;2022-12-18T01:45:29;57.03;;;18.67;;
50010;SDS011;35899;50.352;19.390;2022-12-18T01:47:58;53.60;;;17.77;;
50010;SDS011;35899;50.352;19.390;2022-12-18T01:53:13;60.78;;;20.55;;
50010;SDS011;35899;50.352;19.390;2022-12-18T01:55:46;48.23;;;17.57;;
50010;SDS011;35899;50.352;19.390;2022-12-18T01:58:18;49.53;;;16.67;;
50010;SDS011;35899;50.352;19.390;2022-12-18T02:00:47;52.83;;;19.40;;
50010;SDS011;35899;50.352;19.390;2022-12-18T02:03:14;51.95;;;17.77;;
50010;SDS011;35899;50.352;19.390;2022-12-18T02:05:48;59.67;;;20.77;;
50010;SDS011;35899;50.352;19.390;2022-12-18T02:08:37;99.35;;;31.90;;
50010;SDS011;35899;50.352;19.390;2022-12-18T02:14:27;63.23;;;21.37;;
50010;SDS011;35899;50.352;19.390;2022-12-18T02:17:01;57.43;;;19.63;;
50010;SDS011;35899;50.352;19.390;2022-12-18T02:22:36;53.60;;;18.67;;
50010;SDS011;35899;50.352;19.390;2022-12-18T02:28:35;61.45;;;19.82;;
50010;SDS011;35899;50.352;19.390;2022-12-18T02:31:18;54.03;;;18.67;;
50010;SDS011;35899;50.352;19.390;2022-12-18T02:33:52;67.45;;;20.27;;
50010;SDS011;35899;50.352;19.390;2022-12-18T02:36:26;59.08;;;20.62;;
50010;SDS011;35899;50.352;19.390;2022-12-18T02:38:55;61.87;;;20.30;;
50010;SDS011;35899;50.352;19.390;2022-12-18T02:41:22;57.10;;;19.50;;
50010;SDS011;35899;50.352;19.390;2022-12-18T02:43:59;58.13;;;19.50;;
50010;SDS011;35899;50.352;19.390;2022-12-18T02:46:27;60.25;;;20.55;;
50010;SDS011;35899;50.352;19.390;2022-12-18T03:01:21;73.10;;;23.07;;
50010;SDS011;35899;50.352;19.390;2022-12-18T03:03:59;72.93;;;22.17;;
50010;SDS011;35899;50.352;19.390;2022-12-18T03:06:32;71.22;;;21.93;;
50010;SDS011;35899;50.352;19.390;2022-12-18T03:09:09;66.97;;;21.52;;
50010;SDS011;35899;50.352;19.390;2022-12-18T03:11:40;74.10;;;23.65;;
50010;SDS011;35899;50.352;19.390;2022-12-18T03:14:10;94.93;;;25.40;;
50010;SDS011;35899;50.352;19.390;2022-12-18T03:16:41;73.47;;;22.73;;
50010;SDS011;35899;50.352;19.390;2022-12-18T03:19:11;77.20;;;24.25;;
50010;SDS011;35899;50.352;19.390;2022-12-18T03:21:47;72.65;;;22.30;;
50010;SDS011;35899;50.352;19.390;2022-12-18T03:24:17;74.35;;;23.62;;
50010;SDS011;35899;50.352;19.390;2022-12-18T03:26:47;69.03;;;22.48;;
50010;SDS011;35899;50.352;19.390;2022-12-18T03:29:22;74.40;;;23.23;;
50010;SDS011;35899;50.352;19.390;2022-12-18T03:31:53;87.23;;;26.57;;
50010;SDS011;35899;50.352;19.390;2022-12-18T03:34:32;80.33;;;25.13;;
50010;SDS011;35899;50.352;19.390;2022-12-18T03:36:58;98.23;;;28.03;;
50010;SDS011;35899;50.352;19.390;2022-12-18T03:39:24;78.67;;;24.60;;
50010;SDS011;35899;50.352;19.390;2022-12-18T03:45:09;71.65;;;23.45;;
50010;SDS011;35899;50.352;19.390;2022-12-18T03:50:59;89.92;;;24.75;;
50010;SDS011;35899;50.352;19.390;2022-12-18T03:53:32;75.27;;;24.83;;
50010;SDS011;35899;50.352;19.390;2022-12-18T03:56:10;79.63;;;23.57;;
50010;SDS011;35899;50.352;19.390;2022-12-18T03:58:40;73.87;;;22.90;;
50010;SDS011;35899;50.352;19.390;2022-12-18T04:01:12;77.08;;;23.57;;
50010;SDS011;35899;50.352;19.390;2022-12-18T04:03:42;72.75;;;22.70;;
50010;SDS011;35899;50.352;19.390;2022-12-18T04:06:11;81.23;;;26.03;;
50010;SDS011;35899;50.352;19.390;2022-12-18T04:08:39;78.40;;;23.83;;
50010;SDS011;35899;50.352;19.390;2022-12-18T04:11:07;78.52;;;26.23;;
50010;SDS011;35899;50.352;19.390;2022-12-18T04:13:37;77.87;;;24.18;;
50010;SDS011;35899;50.352;19.390;2022-12-18T04:16:07;77.45;;;24.65;;
50010;SDS011;35899;50.352;19.390;2022-12-18T04:18:33;83.60;;;26.05;;
50010;SDS011;35899;50.352;19.390;2022-12-18T04:21:00;77.50;;;22.80;;
50010;SDS011;35899;50.352;19.390;2022-12-18T04:23:27;84.55;;;24.27;;
50010;SDS011;35899;50.352;19.390;2022-12-18T04:25:56;75.00;;;24.23;;
50010;SDS011;35899;50.352;19.390;2022-12-18T04:28:24;80.77;;;23.65;;
50010;SDS011;35899;50.352;19.390;2022-12-18T04:30:51;87.27;;;25.68;;
50010;SDS011;35899;50.352;19.390;2022-12-18T04:33:18;83.92;;;25.10;;
50010;SDS011;35899;50.352;19.390;2022-12-18T04:35:45;68.95;;;20.92;;
50010;SDS011;35899;50.352;19.390;2022-12-18T04:38:12;81.15;;;23.60;;
50010;SDS011;35899;50.352;19.390;2022-12-18T04:40:39;80.83;;;23.70;;
50010;SDS011;35899;50.352;19.390;2022-12-18T04:43:07;76.10;;;25.52;;
50010;SDS011;35899;50.352;19.390;2022-12-18T04:45:34;75.47;;;23.90;;
50010;SDS011;35899;50.352;19.390;2022-12-18T04:48:01;81.53;;;23.90;;
50010;SDS011;35899;50.352;19.390;2022-12-18T04:50:28;77.72;;;23.73;;
50010;SDS011;35899;50.352;19.390;2022-12-18T04:52:56;65.57;;;20.85;;
50010;SDS011;35899;50.352;19.390;2022-12-18T04:55:26;69.33;;;21.53;;
50010;SDS011;35899;50.352;19.390;2022-12-18T04:57:53;64.87;;;22.17;;
50010;SDS011;35899;50.352;19.390;2022-12-18T05:00:20;70.97;;;22.05;;
50010;SDS011;35899;50.352;19.390;2022-12-18T05:02:47;75.15;;;23.10;;
50010;SDS011;35899;50.352;19.390;2022-12-18T05:05:13;70.97;;;22.83;;
50010;SDS011;35899;50.352;19.390;2022-12-18T05:07:40;68.90;;;20.02;;
50010;SDS011;35899;50.352;19.390;2022-12-18T05:10:07;76.92;;;23.32;;
50010;SDS011;35899;50.352;19.390;2022-12-18T05:12:34;68.42;;;19.92;;
50010;SDS011;35899;50.352;19.390;2022-12-18T05:15:04;70.32;;;23.02;;
50010;SDS011;35899;50.352;19.390;2022-12-18T05:17:32;68.57;;;21.02;;
50010;SDS011;35899;50.352;19.390;2022-12-18T05:19:58;68.53;;;23.77;;
50010;SDS011;35899;50.352;19.390;2022-12-18T05:22:24;72.43;;;21.80;;
50010;SDS011;35899;50.352;19.390;2022-12-18T05:24:50;70.12;;;22.07;;
50010;SDS011;35899;50.352;19.390;2022-12-18T05:27:17;69.35;;;20.82;;
50010;SDS011;35899;50.352;19.390;2022-12-18T05:29:43;71.70;;;22.05;;
50010;SDS011;35899;50.352;19.390;2022-12-18T05:32:09;77.25;;;23.47;;
50010;SDS011;35899;50.352;19.390;2022-12-18T05:34:36;68.47;;;21.30;;
50010;SDS011;35899;50.352;19.390;2022-12-18T05:37:02;63.28;;;19.92;;
50010;SDS011;35899;50.352;19.390;2022-12-18T05:39:29;73.07;;;21.12;;
50010;SDS011;35899;50.352;19.390;2022-12-18T05:41:55;74.62;;;22.75;;
50010;SDS011;35899;50.352;19.390;2022-12-18T05:44:21;64.90;;;20.80;;
50010;SDS011;35899;50.352;19.390;2022-12-18T05:46:48;73.37;;;23.02;;
50010;SDS011;35899;50.352;19.390;2022-12-18T05:49:14;66.95;;;20.12;;
50010;SDS011;35899;50.352;19.390;2022-12-18T05:51:40;73.85;;;21.77;;
50010;SDS011;35899;50.352;19.390;2022-12-18T05:54:07;76.10;;;22.77;;
50010;SDS011;35899;50.352;19.390;2022-12-18T05:56:33;78.78;;;25.05;;
50010;SDS011;35899;50.352;19.390;2022-12-18T05:58:59;69.58;;;21.15;;
50010;SDS011;35899;50.352;19.390;2022-12-18T06:01:26;69.85;;;21.65;;
50010;SDS011;35899;50.352;19.390;2022-12-18T06:03:52;69.57;;;21.63;;
50010;SDS011;35899;50.352;19.390;2022-12-18T06:06:20;76.80;;;23.20;;
50010;SDS011;35899;50.352;19.390;2022-12-18T06:08:49;67.92;;;22.07;;
50010;SDS011;35899;50.352;19.390;2022-12-18T06:11:16;83.77;;;24.80;;
50010;SDS011;35899;50.352;19.390;2022-12-18T06:13:46;89.47;;;27.80;;
50010;SDS011;35899;50.352;19.390;2022-12-18T06:16:20;150.05;;;42.45;;
50010;SDS011;35899;50.352;19.390;2022-12-18T06:18:47;93.25;;;28.83;;
50010;SDS011;35899;50.352;19.390;2022-12-18T06:21:13;79.17;;;24.90;;
50010;SDS011;35899;50.352;19.390;2022-12-18T06:23:40;73.10;;;23.23;;
50010;SDS011;35899;50.352;19.390;2022-12-18T06:26:06;83.80;;;23.47;;
50010;SDS011;35899;50.352;19.390;2022-12-18T06:28:38;75.57;;;22.53;;
50010;SDS011;35899;50.352;19.390;2022-12-18T06:31:05;73.72;;;21.25;;
50010;SDS011;35899;50.352;19.390;2022-12-18T06:33:32;79.00;;;23.42;;
50010;SDS011;35899;50.352;19.390;2022-12-18T06:36:04;79.93;;;23.00;;
50010;SDS011;35899;50.352;19.390;2022-12-18T06:41:00;70.53;;;21.23;;
50010;SDS011;35899;50.352;19.390;2022-12-18T06:43:41;73.13;;;22.90;;
50010;SDS011;35899;50.352;19.390;2022-12-18T06:46:07;72.87;;;21.95;;
50010;SDS011;35899;50.352;19.390;2022-12-18T06:48:35;67.22;;;21.52;;
50010;SDS011;35899;50.352;19.390;2022-12-18T06:51:02;75.17;;;21.35;;
50010;SDS011;35899;50.352;19.390;2022-12-18T06:53:29;73.33;;;21.63;;
50010;SDS011;35899;50.352;19.390;2022-12-18T06:56:03;72.35;;;21.73;;
50010;SDS011;35899;50.352;19.390;2022-12-18T06:58:32;68.47;;;21.12;;
50010;SDS011;35899;50.352;19.390;2022-12-18T07:01:00;77.40;;;23.20;;
50010;SDS011;35899;50.352;19.390;2022-12-18T07:03:27;76.85;;;23.07;;
50010;SDS011;35899;50.352;19.390;2022-12-18T07:05:54;65.73;;;21.70;;
50010;SDS011;35899;50.352;19.390;2022-12-18T07:08:20;72.67;;;22.42;;
50010;SDS011;35899;50.352;19.390;2022-12-18T07:10:46;70.70;;;23.30;;
50010;SDS011;35899;50.352;19.390;2022-12-18T07:13:13;72.70;;;21.17;;
50010;SDS011;35899;50.352;19.390;2022-12-18T07:15:39;74.60;;;22.97;;
50010;SDS011;35899;50.352;19.390;2022-12-18T07:18:06;72.20;;;22.50;;
50010;SDS011;35899;50.352;19.390;2022-12-18T07:20:32;65.05;;;21.30;;
50010;SDS011;35899;50.352;19.390;2022-12-18T07:23:01;71.53;;;23.30;;
50010;SDS011;35899;50.352;19.390;2022-12-18T07:25:29;65.30;;;20.17;;
50010;SDS011;35899;50.352;19.390;2022-12-18T07:27:55;60.38;;;20.17;;
50010;SDS011;35899;50.352;19.390;2022-12-18T07:30:21;61.75;;;19.50;;
50010;SDS011;35899;50.352;19.390;2022-12-18T07:32:48;55.73;;;18.70;;
50010;SDS011;35899;50.352;19.390;2022-12-18T07:35:15;61.33;;;19.50;;
50010;SDS011;35899;50.352;19.390;2022-12-18T07:37:41;67.75;;;23.05;;
50010;SDS011;35899;50.352;19.390;2022-12-18T07:40:08;63.92;;;21.62;;
50010;SDS011;35899;50.352;19.390;2022-12-18T07:42:37;62.53;;;19.00;;
50010;SDS011;35899;50.352;19.390;2022-12-18T07:45:04;71.62;;;23.75;;
50010;SDS011;35899;50.352;19.390;2022-12-18T07:47:31;74.22;;;22.93;;
50010;SDS011;35899;50.352;19.390;2022-12-18T07:50:03;69.63;;;23.80;;
50010;SDS011;35899;50.352;19.390;2022-12-18T07:52:30;82.33;;;27.37;;
50010;SDS011;35899;50.352;19.390;2022-12-18T07:54:56;79.60;;;25.77;;
50010;SDS011;35899;50.352;19.390;2022-12-18T07:57:23;77.35;;;24.95;;
50010;SDS011;35899;50.352;19.390;2022-12-18T07:59:49;72.70;;;25.68;;
50010;SDS011;35899;50.352;19.390;2022-12-18T08:02:15;91.10;;;36.65;;
50010;SDS011;35899;50.352;19.390;2022-12-18T08:04:42;72.08;;;28.23;;
50010;SDS011;35899;50.352;19.390;2022-12-18T08:07:08;75.37;;;26.48;;
50010;SDS011;35899;50.352;19.390;2022-12-18T08:09:35;79.53;;;27.93;;
50010;SDS011;35899;50.352;19.390;2022-12-18T08:12:01;83.58;;;29.87;;
50010;SDS011;35899;50.352;19.390;2022-12-18T08:14:28;78.85;;;27.65;;
50010;SDS011;35899;50.352;19.390;2022-12-18T08:16:54;74.87;;;26.97;;
50010;SDS011;35899;50.352;19.390;2022-12-18T08:19:21;80.57;;;28.30;;
50010;SDS011;35899;50.352;19.390;2022-12-18T08:21:47;135.63;;;44.53;;
50010;SDS011;35899;50.352;19.390;2022-12-18T08:24:13;195.57;;;79.10;;
50010;SDS011;35899;50.352;19.390;2022-12-18T08:26:40;202.78;;;81.55;;
50010;SDS011;35899;50.352;19.390;2022-12-18T08:29:06;328.25;;;148.70;;
50010;SDS011;35899;50.352;19.390;2022-12-18T08:31:36;96.50;;;36.35;;
50010;SDS011;35899;50.352;19.390;2022-12-18T08:34:02;98.05;;;40.10;;
50010;SDS011;35899;50.352;19.390;2022-12-18T08:36:29;103.70;;;45.08;;
50010;SDS011;35899;50.352;19.390;2022-12-18T08:38:56;76.95;;;28.85;;
50010;SDS011;35899;50.352;19.390;2022-12-18T08:41:23;77.10;;;31.82;;
50010;SDS011;35899;50.352;19.390;2022-12-18T08:43:49;78.72;;;29.80;;
50010;SDS011;35899;50.352;19.390;2022-12-18T08:46:17;68.75;;;28.15;;
50010;SDS011;35899;50.352;19.390;2022-12-18T08:48:45;68.75;;;26.15;;
50010;SDS011;35899;50.352;19.390;2022-12-18T08:51:12;65.08;;;25.52;;
50010;SDS011;35899;50.352;19.390;2022-12-18T08:53:38;64.15;;;27.02;;
50010;SDS011;35899;50.352;19.390;2022-12-18T08:56:05;75.45;;;35.88;;
50010;SDS011;35899;50.352;19.390;2022-12-18T08:58:32;64.75;;;25.68;;
50010;SDS011;35899;50.352;19.390;2022-12-18T09:01:05;74.82;;;36.80;;
50010;SDS011;35899;50.352;19.390;2022-12-18T09:03:34;65.10;;;26.87;;
50010;SDS011;35899;50.352;19.390;2022-12-18T09:06:01;59.23;;;25.02;;
50010;SDS011;35899;50.352;19.390;2022-12-18T09:08:28;67.90;;;30.08;;
50010;SDS011;35899;50.352;19.390;2022-12-18T09:10:54;61.18;;;23.80;;
50010;SDS011;35899;50.352;19.390;2022-12-18T09:13:21;49.35;;;21.20;;
50010;SDS011;35899;50.352;19.390;2022-12-18T09:15:50;55.25;;;22.20;;
50010;SDS011;35899;50.352;19.390;2022-12-18T09:18:19;64.77;;;29.45;;
50010;SDS011;35899;50.352;19.390;2022-12-18T09:20:48;49.40;;;19.50;;
50010;SDS011;35899;50.352;19.390;2022-12-18T09:23:14;55.60;;;20.72;;
50010;SDS011;35899;50.352;19.390;2022-12-18T09:25:41;57.43;;;22.40;;
50010;SDS011;35899;50.352;19.390;2022-12-18T09:28:14;53.78;;;22.07;;
50010;SDS011;35899;50.352;19.390;2022-12-18T09:30:48;59.42;;;25.35;;
50010;SDS011;35899;50.352;19.390;2022-12-18T09:33:13;63.17;;;26.52;;
50010;SDS011;35899;50.352;19.390;2022-12-18T09:35:42;58.42;;;24.15;;
50010;SDS011;35899;50.352;19.390;2022-12-18T09:38:14;51.23;;;21.10;;
50010;SDS011;35899;50.352;19.390;2022-12-18T09:43:20;53.08;;;20.12;;
50010;SDS011;35899;50.352;19.390;2022-12-18T09:45:56;53.83;;;19.73;;
50010;SDS011;35899;50.352;19.390;2022-12-18T09:48:26;49.05;;;17.65;;
50010;SDS011;35899;50.352;19.390;2022-12-18T09:51:02;47.00;;;18.25;;
50010;SDS011;35899;50.352;19.390;2022-12-18T09:53:31;44.97;;;17.03;;
50010;SDS011;35899;50.352;19.390;2022-12-18T09:56:00;45.83;;;18.12;;
50010;SDS011;35899;50.352;19.390;2022-12-18T09:58:31;50.17;;;19.12;;
50010;SDS011;35899;50.352;19.390;2022-12-18T10:01:12;52.98;;;19.40;;
50010;SDS011;35899;50.352;19.390;2022-12-18T10:03:44;52.17;;;19.40;;
50010;SDS011;35899;50.352;19.390;2022-12-18T10:17:37;42.43;;;14.87;;
50010;SDS011;35899;50.352;19.390;2022-12-18T10:20:43;47.15;;;17.82;;
50010;SDS011;35899;50.352;19.390;2022-12-18T10:26:19;91.63;;;33.18;;
50010;SDS011;35899;50.352;19.390;2022-12-18T10:28:45;77.22;;;28.57;;
50010;SDS011;35899;50.352;19.390;2022-12-18T10:31:14;91.05;;;33.98;;
50010;SDS011;35899;50.352;19.390;2022-12-18T10:33:43;91.28;;;34.73;;
50010;SDS011;35899;50.352;19.390;2022-12-18T10:36:10;88.75;;;34.05;;
50010;SDS011;35899;50.352;19.390;2022-12-18T10:38:37;92.25;;;35.52;;
50010;SDS011;35899;50.352;19.390;2022-12-18T10:41:05;92.88;;;35.78;;
50010;SDS011;35899;50.352;19.390;2022-12-18T10:43:44;89.72;;;34.55;;
50010;SDS011;35899;50.352;19.390;2022-12-18T10:46:15;87.70;;;34.50;;
50010;SDS011;35899;50.352;19.390;2022-12-18T10:48:53;84.77;;;35.15;;
50010;SDS011;35899;50.352;19.390;2022-12-18T10:51:29;90.38;;;35.00;;
50010;SDS011;35899;50.352;19.390;2022-12-18T10:54:15;86.28;;;33.18;;
50010;SDS011;35899;50.352;19.390;2022-12-18T10:56:45;82.65;;;33.67;;
50010;SDS011;35899;50.352;19.390;2022-12-18T10:59:13;75.57;;;29.27;;
50010;SDS011;35899;50.352;19.390;2022-12-18T11:01:46;62.88;;;24.95;;
50010;SDS011;35899;50.352;19.390;2022-12-18T11:04:24;72.95;;;28.85;;
50010;SDS011;35899;50.352;19.390;2022-12-18T11:07:00;76.17;;;31.07;;
50010;SDS011;35899;50.352;19.390;2022-12-18T11:09:34;74.35;;;28.02;;
50010;SDS011;35899;50.352;19.390;2022-12-18T11:12:14;70.00;;;26.80;;
50010;SDS011;35899;50.352;19.390;2022-12-18T11:17:21;72.65;;;26.68;;
50010;SDS011;35899;50.352;19.390;2022-12-18T11:19:57;75.55;;;29.40;;
50010;SDS011;35899;50.352;19.390;2022-12-18T11:22:30;72.60;;;28.10;;
50010;SDS011;35899;50.352;19.390;2022-12-18T11:25:06;67.72;;;28.92;;
50010;SDS011;35899;50.352;19.390;2022-12-18T11:27:48;76.28;;;29.85;;
50010;SDS011;35899;50.352;19.390;2022-12-18T11:33:06;72.08;;;29.63;;
50010;SDS011;35899;50.352;19.390;2022-12-18T11:35:51;82.25;;;30.70;;
50010;SDS011;35899;50.352;19.390;2022-12-18T11:38:26;83.70;;;31.48;;
50010;SDS011;35899;50.352;19.390;2022-12-18T11:40:58;72.12;;;27.55;;
50010;SDS011;35899;50.352;19.390;2022-12-18T11:46:11;62.98;;;25.12;;
50010;SDS011;35899;50.352;19.390;2022-12-18T11:48:58;61.28;;;24.90;;
50010;SDS011;35899;50.352;19.390;2022-12-18T11:51:38;63.45;;;25.32;;
50010;SDS011;35899;50.352;19.390;2022-12-18T11:54:21;61.92;;;26.17;;
50010;SDS011;35899;50.352;19.390;2022-12-18T11:56:49;61.53;;;26.68;;
50010;SDS011;35899;50.352;19.390;2022-12-18T12:27:52;48.73;;;21.65;;
50010;SDS011;35899;50.352;19.390;2022-12-18T12:30:31;45.95;;;20.70;;
50010;SDS011;35899;50.352;19.390;2022-12-18T12:39:06;47.65;;;21.77;;
50010;SDS011;35899;50.352;19.390;2022-12-18T12:41:35;52.75;;;23.80;;
50010;SDS011;35899;50.352;19.390;2022-12-18T12:44:03;55.55;;;26.45;;
50010;SDS011;35899;50.352;19.390;2022-12-18T12:46:34;48.65;;;20.80;;
50010;SDS011;35899;50.352;19.390;2022-12-18T12:49:04;52.50;;;23.47;;
50010;SDS011;35899;50.352;19.390;2022-12-18T12:51:38;54.45;;;22.65;;
50010;SDS011;35899;50.352;19.390;2022-12-18T12:54:21;54.33;;;23.75;;
50010;SDS011;35899;50.352;19.390;2022-12-18T12:59:50;56.95;;;23.55;;
50010;SDS011;35899;50.352;19.390;2022-12-18T13:05:45;71.35;;;28.32;;
50010;SDS011;35899;50.352;19.390;2022-12-18T13:08:28;61.58;;;25.72;;
50010;SDS011;35899;50.352;19.390;2022-12-18T13:10:58;76.62;;;32.20;;
50010;SDS011;35899;50.352;19.390;2022-12-18T13:13:25;68.37;;;28.75;;
50010;SDS011;35899;50.352;19.390;2022-12-18T13:16:06;61.30;;;25.02;;
50010;SDS011;35899;50.352;19.390;2022-12-18T13:18:34;71.53;;;26.75;;
50010;SDS011;35899;50.352;19.390;2022-12-18T13:21:12;69.45;;;25.80;;
50010;SDS011;35899;50.352;19.390;2022-12-18T13:23:47;64.42;;;26.40;;
50010;SDS011;35899;50.352;19.390;2022-12-18T13:28:53;64.97;;;25.50;;
50010;SDS011;35899;50.352;19.390;2022-12-18T13:34:20;67.17;;;25.23;;
50010;SDS011;35899;50.352;19.390;2022-12-18T13:36:49;70.65;;;25.00;;
50010;SDS011;35899;50.352;19.390;2022-12-18T13:41:49;68.55;;;24.23;;
50010;SDS011;35899;50.352;19.390;2022-12-18T13:44:26;68.52;;;23.45;;
50010;SDS011;35899;50.352;19.390;2022-12-18T13:47:02;65.60;;;23.70;;
50010;SDS011;35899;50.352;19.390;2022-12-18T13:49:40;63.35;;;22.82;;
50010;SDS011;35899;50.352;19.390;2022-12-18T13:52:24;69.82;;;22.95;;
50010;SDS011;35899;50.352;19.390;2022-12-18T13:54:55;61.05;;;22.80;;
50010;SDS011;35899;50.352;19.390;2022-12-18T13:57:32;58.83;;;20.32;;
50010;SDS011;35899;50.352;19.390;2022-12-18T14:02:55;62.43;;;22.02;;
50010;SDS011;35899;50.352;19.390;2022-12-18T14:05:29;57.80;;;20.75;;
50010;SDS011;35899;50.352;19.390;2022-12-18T14:08:10;59.27;;;19.92;;
50010;SDS011;35899;50.352;19.390;2022-12-18T14:10:34;61.05;;;20.43;;
50010;SDS011;35899;50.352;19.390;2022-12-18T14:13:08;64.05;;;21.75;;
50010;SDS011;35899;50.352;19.390;2022-12-18T14:15:39;75.08;;;24.40;;
50010;SDS011;35899;50.352;19.390;2022-12-18T14:20:49;131.30;;;41.15;;
50010;SDS011;35899;50.352;19.390;2022-12-18T14:23:29;125.10;;;37.78;;
50010;SDS011;35899;50.352;19.390;2022-12-18T14:26:02;156.18;;;41.65;;
50010;SDS011;35899;50.352;19.390;2022-12-18T14:28:50;176.67;;;49.50;;
50010;SDS011;35899;50.352;19.390;2022-12-18T14:31:17;187.27;;;50.23;;
50010;SDS011;35899;50.352;19.390;2022-12-18T14:33:50;106.32;;;32.78;;
50010;SDS011;35899;50.352;19.390;2022-12-18T14:36:19;117.90;;;35.10;;
50010;SDS011;35899;50.352;19.390;2022-12-18T14:38:55;103.40;;;32.13;;
50010;SDS011;35899;50.352;19.390;2022-12-18T14:41:24;106.97;;;32.97;;
50010;SDS011;35899;50.352;19.390;2022-12-18T14:43:52;117.08;;;31.97;;
50010;SDS011;35899;50.352;19.390;2022-12-18T14:46:34;115.57;;;34.90;;
50010;SDS011;35899;50.352;19.390;2022-12-18T15:12:22;100.07;;;31.83;;
50010;SDS011;35899;50.352;19.390;2022-12-18T15:14:52;106.27;;;34.13;;
50010;SDS011;35899;50.352;19.390;2022-12-18T15:17:20;120.20;;;37.23;;
50010;SDS011;35899;50.352;19.390;2022-12-18T15:19:49;131.90;;;40.90;;
50010;SDS011;35899;50.352;19.390;2022-12-18T15:22:21;115.70;;;39.33;;
50010;SDS011;35899;50.352;19.390;2022-12-18T15:24:56;117.20;;;39.07;;
50010;SDS011;35899;50.352;19.390;2022-12-18T15:27:28;113.20;;;39.47;;
50010;SDS011;35899;50.352;19.390;2022-12-18T15:32:43;120.17;;;40.20;;
50010;SDS011;35899;50.352;19.390;2022-12-18T15:37:48;120.77;;;41.87;;
50010;SDS011;35899;50.352;19.390;2022-12-18T15:40:22;126.70;;;42.07;;
50010;SDS011;35899;50.352;19.390;2022-12-18T15:42:47;133.93;;;43.73;;
50010;SDS011;35899;50.352;19.390;2022-12-18T15:45:15;137.10;;;43.83;;
50010;SDS011;35899;50.352;19.390;2022-12-18T15:47:41;125.10;;;40.97;;
50010;SDS011;35899;50.352;19.390;2022-12-18T15:50:08;141.10;;;44.87;;
50010;SDS011;35899;50.352;19.390;2022-12-18T15:52:39;129.37;;;43.90;;
50010;SDS011;35899;50.352;19.390;2022-12-18T15:57:42;186.97;;;59.00;;
50010;SDS011;35899;50.352;19.390;2022-12-18T16:00:11;187.23;;;62.03;;
50010;SDS011;35899;50.352;19.390;2022-12-18T16:02:38;178.30;;;58.20;;
50010;SDS011;35899;50.352;19.390;2022-12-18T16:05:09;186.17;;;61.37;;
50010;SDS011;35899;50.352;19.390;2022-12-18T16:07:41;189.07;;;63.93;;
50010;SDS011;35899;50.352;19.390;2022-12-18T16:10:09;209.03;;;65.77;;
50010;SDS011;35899;50.352;19.390;2022-12-18T16:12:36;177.63;;;57.00;;
50010;SDS011;35899;50.352;19.390;2022-12-18T16:15:03;153.07;;;47.30;;
50010;SDS011;35899;50.352;19.390;2022-12-18T16:17:32;126.97;;;41.20;;
50010;SDS011;35899;50.352;19.390;2022-12-18T16:19:59;126.33;;;39.07;;
50010;SDS011;35899;50.352;19.390;2022-12-18T16:22:27;116.20;;;38.43;;
50010;SDS011;35899;50.352;19.390;2022-12-18T16:24:56;122.17;;;37.27;;
50010;SDS011;35899;50.352;19.390;2022-12-18T16:27:23;113.70;;;35.57;;
50010;SDS011;35899;50.352;19.390;2022-12-18T16:29:50;97.70;;;30.03;;
50010;SDS011;35899;50.352;19.390;2022-12-18T16:32:18;108.97;;;31.43;;
50010;SDS011;35899;50.352;19.390;2022-12-18T16:34:46;82.87;;;27.30;;
50010;SDS011;35899;50.352;19.390;2022-12-18T16:37:14;98.63;;;30.23;;
50010;SDS011;35899;50.352;19.390;2022-12-18T16:39:41;94.67;;;30.03;;
50010;SDS011;35899;50.352;19.390;2022-12-18T16:42:19;93.93;;;29.50;;
50010;SDS011;35899;50.352;19.390;2022-12-18T16:44:45;88.10;;;27.93;;
50010;SDS011;35899;50.352;19.390;2022-12-18T16:47:14;86.77;;;28.27;;